createdAt,value
2023-03-02T00:00:22.114Z,88.40
2023-03-02T00:02:52.399Z,88.20
2023-03-02T00:05:24.557Z,87.96
2023-03-02T00:07:57.383Z,88.27
2023-03-02T00:10:28.177Z,88.05
2023-03-02T00:12:58.187Z,88.11
2023-03-02T00:15:28.416Z,88.27
2023-03-02T00:17:59.678Z,88.21
2023-03-02T00:20:31.667Z,88.55
2023-03-02T00:23:07.458Z,88.57
2023-03-02T00:25:40.269Z,88.61
2023-03-02T00:28:12.523Z,88.63
2023-03-02T00:30:44.502Z,88.89
2023-03-02T00:33:15.931Z,88.98
2023-03-02T00:35:45.938Z,88.69
2023-03-02T00:38:19.117Z,88.80
2023-03-02T00:40:50.281Z,88.43
2023-03-02T00:43:22.913Z,88.57
2023-03-02T00:45:53.257Z,88.48
2023-03-02T00:48:23.348Z,88.82
2023-03-02T00:50:54.176Z,89.02
2023-03-02T00:53:26.983Z,88.68
2023-03-02T00:55:58.123Z,88.98
2023-03-02T00:58:29.762Z,88.79
2023-03-02T01:01:01.458Z,88.59
2023-03-02T01:03:31.508Z,89.28
2023-03-02T01:06:01.600Z,89.11
2023-03-02T01:08:37.221Z,89.00
2023-03-02T01:11:15.132Z,88.99
2023-03-02T01:13:45.047Z,88.88
2023-03-02T01:16:15.437Z,88.74
2023-03-02T01:18:46.190Z,88.69
2023-03-02T01:21:19.224Z,88.91
2023-03-02T01:23:52.659Z,88.78
2023-03-02T01:26:22.849Z,88.86
2023-03-02T01:28:55.561Z,88.91
2023-03-02T01:31:25.867Z,89.66
2023-03-02T01:33:57.296Z,89.09
2023-03-02T01:36:27.743Z,89.60
2023-03-02T01:39:00.597Z,89.40
2023-03-02T01:41:31.221Z,89.34
2023-03-02T01:44:01.776Z,89.46
2023-03-02T01:46:36.246Z,89.15
2023-03-02T01:49:10.825Z,89.19
2023-03-02T01:51:58.479Z,89.21
2023-03-02T01:54:33.488Z,89.64
2023-03-02T01:57:10.716Z,89.34
2023-03-02T01:59:45.650Z,89.07
2023-03-02T02:02:16.200Z,89.21
2023-03-02T02:04:51.950Z,89.57
2023-03-02T02:07:22.125Z,89.32
2023-03-02T02:09:57.180Z,88.90
2023-03-02T02:12:27.394Z,88.83
2023-03-02T02:15:00.851Z,88.72
2023-03-02T02:17:32.789Z,88.57
2023-03-02T02:20:13.117Z,88.83
2023-03-02T02:22:56.118Z,88.64
2023-03-02T02:25:47.197Z,88.74
2023-03-02T02:28:28.542Z,88.55
2023-03-02T02:31:09.074Z,89.00
2023-03-02T02:33:43.550Z,88.64
2023-03-02T02:36:21.412Z,88.66
2023-03-02T02:38:58.491Z,88.66
2023-03-02T02:41:33.676Z,88.71
2023-03-02T02:44:06.585Z,89.02
2023-03-02T02:46:36.863Z,89.08
2023-03-02T02:49:20.189Z,88.94
2023-03-02T02:51:51.754Z,88.84
2023-03-02T02:54:22.569Z,89.30
2023-03-02T02:56:56.099Z,89.00
2023-03-02T02:59:35.990Z,89.16
2023-03-02T03:02:06.550Z,89.28
2023-03-02T03:04:36.683Z,89.36
2023-03-02T03:07:09.894Z,89.15
2023-03-02T03:09:40.718Z,89.24
2023-03-02T03:12:18.486Z,89.45
2023-03-02T03:14:53.091Z,89.42
2023-03-02T03:17:23.555Z,89.95
2023-03-02T03:20:06.865Z,89.75
2023-03-02T03:22:41.555Z,90.47
2023-03-02T03:25:15.588Z,90.30
2023-03-02T03:27:49.007Z,90.16
2023-03-02T03:30:22.805Z,90.55
2023-03-02T03:32:53.452Z,91.14
2023-03-02T03:35:23.449Z,90.78
2023-03-02T03:37:55.229Z,90.71
2023-03-02T03:40:25.521Z,90.62
2023-03-02T03:42:55.966Z,90.35
2023-03-02T03:45:30.478Z,90.84
2023-03-02T03:48:01.793Z,90.89
2023-03-02T03:50:32.667Z,90.53
2023-03-02T03:53:03.923Z,90.52
2023-03-02T03:55:34.700Z,90.77
2023-03-02T03:58:05.809Z,90.38
2023-03-02T04:00:39.135Z,90.86
2023-03-02T04:03:12.874Z,91.00
2023-03-02T04:05:43.537Z,91.20
2023-03-02T04:08:14.308Z,91.07
2023-03-02T04:10:44.257Z,91.33
2023-03-02T04:13:15.327Z,91.17
2023-03-02T04:15:49.828Z,91.17
2023-03-02T04:18:24.105Z,91.02
2023-03-02T04:20:54.285Z,90.95
2023-03-02T04:23:24.425Z,90.99
2023-03-02T04:25:54.492Z,90.86
2023-03-02T04:28:26.376Z,90.60
2023-03-02T04:30:59.015Z,90.80
2023-03-02T04:33:29.166Z,90.88
2023-03-02T04:35:59.671Z,90.85
2023-03-02T04:38:30.628Z,91.17
2023-03-02T04:41:02.384Z,91.21
2023-03-02T04:43:32.677Z,91.04
2023-03-02T04:46:05.187Z,90.53
2023-03-02T04:48:35.506Z,90.75
2023-03-02T04:51:07.384Z,90.64
2023-03-02T04:53:39.390Z,90.66
2023-03-02T04:56:10.657Z,90.37
2023-03-02T04:58:43.249Z,90.32
2023-03-02T05:01:17.376Z,89.99
2023-03-02T05:03:47.401Z,90.17
2023-03-02T05:06:18.015Z,90.19
2023-03-02T05:08:48.634Z,89.75
2023-03-02T05:11:22.590Z,89.79
2023-03-02T05:13:53.702Z,89.79
2023-03-02T05:16:29.448Z,89.56
2023-03-02T05:18:59.509Z,89.73
2023-03-02T05:21:30.577Z,90.06
2023-03-02T05:24:00.976Z,89.68
2023-03-02T05:26:31.968Z,89.86
2023-03-02T05:29:02.672Z,90.23
2023-03-02T05:31:38.264Z,90.24
2023-03-02T05:34:11.391Z,90.20
2023-03-02T05:36:42.733Z,90.30
2023-03-02T05:39:13.273Z,90.09
2023-03-02T05:41:44.344Z,90.75
2023-03-02T05:44:14.876Z,90.48
2023-03-02T05:46:47.732Z,88.26
2023-03-02T05:49:18.728Z,87.98
2023-03-02T05:51:49.102Z,88.08
2023-03-02T05:54:19.088Z,88.49
2023-03-02T05:56:50.396Z,88.23
2023-03-02T05:59:20.421Z,88.45
2023-03-02T06:01:59.310Z,88.71
2023-03-02T06:04:29.587Z,88.89
2023-03-02T06:07:00.664Z,88.85
2023-03-02T06:09:32.191Z,88.82
2023-03-02T06:12:02.808Z,88.57
2023-03-02T06:14:32.727Z,88.29
2023-03-02T06:17:05.820Z,87.42
2023-03-02T06:19:37.394Z,87.17
2023-03-02T06:22:08.580Z,86.20
2023-03-02T06:24:40.271Z,84.83
2023-03-02T06:27:10.545Z,83.65
2023-03-02T06:29:41.452Z,82.40
2023-03-02T06:32:14.257Z,81.12
2023-03-02T06:34:45.296Z,80.78
2023-03-02T06:37:15.199Z,79.93
2023-03-02T06:39:45.956Z,79.53
2023-03-02T06:42:16.249Z,78.02
2023-03-02T06:44:46.446Z,77.54
2023-03-02T06:47:19.836Z,76.14
2023-03-02T06:49:49.994Z,75.89
2023-03-02T06:52:21.433Z,75.11
2023-03-02T06:54:51.312Z,73.23
2023-03-02T06:57:21.904Z,71.58
2023-03-02T06:59:52.604Z,70.64
2023-03-02T07:02:26.022Z,69.40
2023-03-02T07:04:56.713Z,68.83
2023-03-02T07:07:26.628Z,67.33
2023-03-02T07:09:57.348Z,67.21
2023-03-02T07:12:27.834Z,66.34
2023-03-02T07:14:58.365Z,65.84
2023-03-02T07:17:30.946Z,65.22
2023-03-02T07:20:01.713Z,63.78
2023-03-02T07:22:31.596Z,61.61
2023-03-02T07:25:02.273Z,62.07
2023-03-02T07:27:32.193Z,61.42
2023-03-02T07:30:03.570Z,60.74
2023-03-02T07:32:36.332Z,59.49
2023-03-02T07:35:07.030Z,59.05
2023-03-02T07:37:37.372Z,58.51
2023-03-02T07:40:09.573Z,55.56
2023-03-02T07:42:40.005Z,54.02
2023-03-02T07:45:11.524Z,52.62
2023-03-02T07:47:44.607Z,52.52
2023-03-02T07:50:15.140Z,51.58
2023-03-02T07:52:46.191Z,51.50
2023-03-02T07:55:16.085Z,51.89
2023-03-02T07:57:46.801Z,52.65
2023-03-02T08:00:18.686Z,54.82
2023-03-02T08:02:52.034Z,55.93
2023-03-02T08:05:22.072Z,57.28
2023-03-02T08:07:52.529Z,55.14
2023-03-02T08:10:23.099Z,55.51
2023-03-02T08:12:53.927Z,55.02
2023-03-02T08:15:24.549Z,54.59
2023-03-02T08:17:57.674Z,54.95
2023-03-02T08:20:27.666Z,52.67
2023-03-02T08:22:58.662Z,54.82
2023-03-02T08:25:29.004Z,55.44
2023-03-02T08:27:59.788Z,55.76
2023-03-02T08:30:29.639Z,56.04
2023-03-02T08:33:06.675Z,54.93
2023-03-02T08:35:37.209Z,53.71
2023-03-02T08:38:07.951Z,54.00
2023-03-02T08:40:37.867Z,53.54
2023-03-02T08:43:08.622Z,53.31
2023-03-02T08:45:38.525Z,52.01
2023-03-02T08:48:12.072Z,53.69
2023-03-02T08:50:42.306Z,54.78
2023-03-02T08:53:12.819Z,54.12
2023-03-02T08:55:42.682Z,51.18
2023-03-02T08:58:13.504Z,50.78
2023-03-02T09:00:43.937Z,53.09
2023-03-02T09:03:16.912Z,51.98
2023-03-02T09:05:47.681Z,48.71
2023-03-02T09:08:18.078Z,47.85
2023-03-02T09:10:48.561Z,45.35
2023-03-02T09:13:18.413Z,42.80
2023-03-02T09:15:49.099Z,41.15
2023-03-02T09:18:21.540Z,39.55
2023-03-02T09:20:53.637Z,38.06
2023-03-02T09:23:23.786Z,37.90
2023-03-02T09:25:55.364Z,36.37
2023-03-02T09:28:26.031Z,35.65
2023-03-02T09:31:00.812Z,33.95
2023-03-02T09:33:34.693Z,33.70
2023-03-02T09:36:10.080Z,33.07
2023-03-02T09:38:40.119Z,32.78
2023-03-02T09:41:35.744Z,32.42
2023-03-02T09:44:27.241Z,30.09
2023-03-02T09:47:03.955Z,32.17
2023-03-02T09:49:55.963Z,32.24
2023-03-02T09:52:35.122Z,30.16
2023-03-02T09:55:18.265Z,29.62
2023-03-02T09:57:50.661Z,29.42
2023-03-02T10:00:31.579Z,29.43
2023-03-02T10:03:16.657Z,28.48
2023-03-02T10:05:54.095Z,29.12
2023-03-02T10:08:28.084Z,28.31
2023-03-02T10:11:08.583Z,28.43
2023-03-02T10:13:47.771Z,28.64
2023-03-02T10:16:30.518Z,29.76
2023-03-02T10:19:11.252Z,29.82
2023-03-02T10:21:50.818Z,29.62
2023-03-02T10:24:33.403Z,28.10
2023-03-02T10:27:18.123Z,28.05
2023-03-02T10:29:58.802Z,27.68
2023-03-02T10:32:34.866Z,27.86
2023-03-02T10:35:17.301Z,27.14
2023-03-02T10:37:50.805Z,27.07
2023-03-02T10:40:41.440Z,28.80
2023-03-02T10:43:21.059Z,28.91
2023-03-02T10:46:02.114Z,28.61
2023-03-02T10:48:33.413Z,28.32
2023-03-02T10:51:03.720Z,30.37
2023-03-02T10:53:37.041Z,30.19
2023-03-02T10:56:09.261Z,29.57
2023-03-02T10:58:39.410Z,29.79
2023-03-02T11:01:20.349Z,30.37
2023-03-02T11:03:59.102Z,30.18
2023-03-02T11:06:31.996Z,29.91
2023-03-02T11:09:08.835Z,31.93
2023-03-02T11:11:40.016Z,32.02
2023-03-02T11:14:18.619Z,32.24
2023-03-02T11:16:51.402Z,32.57
2023-03-02T11:19:37.531Z,33.64
2023-03-02T11:22:35.852Z,34.29
2023-03-02T11:25:17.774Z,36.08
2023-03-02T11:27:49.842Z,36.93
2023-03-02T11:30:27.713Z,38.71
2023-03-02T11:33:06.527Z,38.75
2023-03-02T11:35:46.046Z,41.08
2023-03-02T11:38:22.610Z,41.88
2023-03-02T11:41:01.639Z,42.78
2023-03-02T11:43:31.627Z,42.78
2023-03-02T11:46:13.957Z,42.81
2023-03-02T11:48:56.096Z,42.85
2023-03-02T11:51:31.271Z,42.15
2023-03-02T11:54:06.980Z,44.10
2023-03-02T11:56:42.585Z,44.08
2023-03-02T11:59:21.715Z,43.76
2023-03-02T12:01:57.094Z,43.83
2023-03-02T12:04:35.994Z,44.89
2023-03-02T12:07:21.170Z,45.68
2023-03-02T12:10:02.123Z,45.39
2023-03-02T12:13:01.684Z,45.72
2023-03-02T12:15:41.010Z,46.88
2023-03-02T12:18:41.767Z,47.40
2023-03-02T12:21:14.903Z,47.32
2023-03-02T12:23:59.253Z,47.64
2023-03-02T12:26:39.344Z,47.80
2023-03-02T12:29:26.921Z,48.07
2023-03-02T12:31:59.715Z,48.24
2023-03-02T12:34:39.908Z,49.38
2023-03-02T12:37:19.788Z,48.97
2023-03-02T12:40:23.093Z,48.91
2023-03-02T12:43:22.866Z,49.16
2023-03-02T12:46:23.059Z,48.89
2023-03-02T12:49:06.647Z,49.33
2023-03-02T12:51:52.747Z,50.71
2023-03-02T12:54:26.136Z,50.53
2023-03-02T12:57:10.361Z,49.44
2023-03-02T12:59:41.080Z,50.25
2023-03-02T13:02:22.505Z,50.36
2023-03-02T13:04:57.626Z,50.30
2023-03-02T13:07:31.150Z,50.14
2023-03-02T13:10:02.883Z,50.05
2023-03-02T13:12:33.908Z,50.47
2023-03-02T13:15:04.945Z,50.45
2023-03-02T13:17:37.414Z,49.88
2023-03-02T13:20:09.613Z,50.59
2023-03-02T13:22:40.544Z,52.13
2023-03-02T13:25:27.988Z,52.41
2023-03-02T13:28:01.237Z,52.68
2023-03-02T13:30:35.092Z,52.74
2023-03-02T13:33:24.550Z,52.85
2023-03-02T13:35:56.224Z,53.29
2023-03-02T13:38:29.210Z,53.45
2023-03-02T13:41:00.013Z,53.71
2023-03-02T13:43:40.796Z,54.23
2023-03-02T13:46:30.594Z,54.25
2023-03-02T13:49:10.760Z,54.39
2023-03-02T13:51:45.815Z,54.46
2023-03-02T13:54:24.427Z,54.68
2023-03-02T13:56:56.672Z,55.04
2023-03-02T13:59:26.953Z,54.68
2023-03-02T14:01:58.308Z,55.28
2023-03-02T14:04:30.951Z,55.34
2023-03-02T14:07:01.643Z,55.31
2023-03-02T14:09:31.631Z,55.21
2023-03-02T14:12:02.153Z,55.48
2023-03-02T14:14:40.158Z,55.19
2023-03-02T14:17:18.314Z,55.43
2023-03-02T14:19:52.950Z,55.77
2023-03-02T14:22:23.319Z,56.01
2023-03-02T14:24:53.660Z,56.32
2023-03-02T14:27:26.000Z,56.04
2023-03-02T14:29:59.176Z,56.40
2023-03-02T14:32:31.449Z,56.64
2023-03-02T14:35:04.566Z,56.72
2023-03-02T14:37:34.535Z,57.05
2023-03-02T14:40:06.440Z,56.88
2023-03-02T14:42:37.053Z,56.97
2023-03-02T14:45:07.650Z,57.14
2023-03-02T14:47:37.510Z,56.84
2023-03-02T14:50:11.558Z,58.25
2023-03-02T14:52:46.259Z,58.30
2023-03-02T14:55:23.743Z,57.04
2023-03-02T14:57:57.302Z,56.99
2023-03-02T15:00:31.664Z,57.04
2023-03-02T15:03:01.751Z,57.38
2023-03-02T15:05:34.765Z,57.40
2023-03-02T15:08:04.985Z,57.38
2023-03-02T15:10:35.138Z,57.48
2023-03-02T15:13:05.083Z,57.64
2023-03-02T15:15:35.377Z,57.82
2023-03-02T15:18:05.342Z,57.99
2023-03-02T15:20:38.340Z,58.21
2023-03-02T15:23:08.330Z,58.38
2023-03-02T15:25:38.580Z,59.13
2023-03-02T15:28:09.305Z,59.81
2023-03-02T15:30:39.323Z,60.58
2023-03-02T15:33:09.321Z,60.61
2023-03-02T15:35:42.843Z,60.92
2023-03-02T15:38:12.894Z,60.92
2023-03-02T15:40:43.601Z,61.39
2023-03-02T15:43:13.638Z,62.20
2023-03-02T15:45:47.959Z,62.04
2023-03-02T15:48:19.132Z,64.31
2023-03-02T15:51:01.240Z,63.71
2023-03-02T15:53:32.514Z,63.57
2023-03-02T15:56:02.900Z,64.19
2023-03-02T15:58:33.881Z,64.47
2023-03-02T16:01:11.332Z,65.02
2023-03-02T16:03:41.428Z,65.33
2023-03-02T16:06:15.852Z,65.68
2023-03-02T16:08:45.744Z,66.20
2023-03-02T16:11:19.318Z,66.36
2023-03-02T16:13:49.280Z,66.87
2023-03-02T16:16:19.345Z,67.09
2023-03-02T16:18:52.807Z,67.75
2023-03-02T16:21:27.167Z,68.17
2023-03-02T16:24:03.338Z,68.15
2023-03-02T16:26:34.743Z,68.38
2023-03-02T16:29:05.565Z,69.17
2023-03-02T16:31:37.825Z,69.03
2023-03-02T16:34:10.684Z,69.51
2023-03-02T16:36:45.308Z,70.09
2023-03-02T16:39:16.947Z,69.94
2023-03-02T16:41:48.731Z,70.48
2023-03-02T16:44:19.311Z,70.58
2023-03-02T16:46:51.626Z,71.13
2023-03-02T16:49:21.669Z,71.45
2023-03-02T16:51:59.666Z,71.99
2023-03-02T16:54:29.559Z,71.94
2023-03-02T16:56:59.460Z,72.57
2023-03-02T16:59:31.408Z,72.57
2023-03-02T17:02:01.689Z,73.25
2023-03-02T17:04:34.865Z,73.69
2023-03-02T17:07:08.490Z,74.27
2023-03-02T17:09:41.428Z,74.77
2023-03-02T17:12:11.760Z,75.09
2023-03-02T17:14:41.625Z,74.86
2023-03-02T17:17:11.602Z,75.16
2023-03-02T17:19:41.439Z,75.71
2023-03-02T17:22:14.474Z,76.09
2023-03-02T17:24:44.414Z,76.28
2023-03-02T17:27:24.488Z,76.40
2023-03-02T17:29:55.095Z,77.06
2023-03-02T17:32:26.725Z,77.83
2023-03-02T17:34:56.742Z,77.66
2023-03-02T17:37:30.469Z,77.96
2023-03-02T17:40:00.396Z,78.20
2023-03-02T17:42:30.817Z,78.24
2023-03-02T17:45:00.727Z,77.99
2023-03-02T17:47:30.832Z,78.18
2023-03-02T17:50:01.581Z,78.60
2023-03-02T17:52:34.056Z,78.64
2023-03-02T17:55:03.960Z,79.36
2023-03-02T17:57:33.883Z,79.36
2023-03-02T18:00:04.592Z,79.83
2023-03-02T18:02:34.500Z,79.57
2023-03-02T18:05:04.466Z,79.64
2023-03-02T18:07:36.887Z,79.81
2023-03-02T18:10:09.360Z,79.81
2023-03-02T18:12:39.271Z,80.13
2023-03-02T18:15:11.165Z,81.05
2023-03-02T18:17:41.314Z,80.12
2023-03-02T18:20:13.700Z,79.89
2023-03-02T18:22:46.157Z,79.33
2023-03-02T18:25:16.517Z,79.37
2023-03-02T18:27:46.510Z,79.81
2023-03-02T18:30:17.626Z,79.59
2023-03-02T18:32:47.440Z,79.95
2023-03-02T18:35:17.548Z,79.98
2023-03-02T18:37:50.661Z,80.32
2023-03-02T18:40:20.805Z,80.89
2023-03-02T18:42:52.653Z,80.60
2023-03-02T18:45:27.211Z,80.51
2023-03-02T18:47:57.231Z,80.85
2023-03-02T18:50:28.507Z,80.88
2023-03-02T18:53:01.022Z,81.26
2023-03-02T18:55:30.909Z,81.24
2023-03-02T18:58:01.190Z,81.28
2023-03-02T19:00:31.342Z,81.34
2023-03-02T19:03:01.550Z,81.25
2023-03-02T19:05:31.807Z,81.20
2023-03-02T19:08:04.784Z,81.55
2023-03-02T19:10:35.173Z,81.66
2023-03-02T19:13:05.715Z,81.59
2023-03-02T19:15:37.245Z,81.78
2023-03-02T19:18:07.374Z,81.83
2023-03-02T19:20:37.894Z,81.97
2023-03-02T19:23:10.378Z,81.77
2023-03-02T19:25:40.664Z,81.93
2023-03-02T19:28:12.415Z,81.72
2023-03-02T19:30:43.270Z,81.67
2023-03-02T19:33:13.429Z,81.99
2023-03-02T19:35:44.755Z,82.14
2023-03-02T19:38:18.317Z,82.20
2023-03-02T19:40:49.330Z,82.48
2023-03-02T19:43:20.396Z,82.75
2023-03-02T19:45:50.687Z,82.44
2023-03-02T19:48:22.158Z,82.67
2023-03-02T19:50:53.557Z,83.02
2023-03-02T19:53:26.805Z,82.91
2023-03-02T19:56:02.235Z,82.99
2023-03-02T19:58:33.332Z,82.96
2023-03-02T20:01:05.019Z,83.06
2023-03-02T20:03:34.984Z,82.81
2023-03-02T20:06:05.381Z,82.74
2023-03-02T20:08:39.225Z,82.82
2023-03-02T20:11:09.605Z,82.90
2023-03-02T20:13:40.516Z,83.03
2023-03-02T20:16:11.407Z,82.90
2023-03-02T20:18:41.810Z,82.91
2023-03-02T20:21:11.751Z,83.02
2023-03-02T20:23:44.612Z,83.03
2023-03-02T20:26:15.809Z,83.44
2023-03-02T20:28:46.313Z,84.11
2023-03-02T20:31:19.218Z,84.19
2023-03-02T20:33:52.984Z,83.99
2023-03-02T20:36:28.241Z,83.99
2023-03-02T20:39:04.792Z,84.21
2023-03-02T20:41:36.961Z,84.02
2023-03-02T20:44:07.710Z,84.09
2023-03-02T20:46:42.132Z,83.97
2023-03-02T20:49:16.322Z,84.39
2023-03-02T20:51:52.957Z,84.50
2023-03-02T20:54:29.218Z,84.47
2023-03-02T20:56:59.988Z,84.09
2023-03-02T20:59:31.243Z,83.78
2023-03-02T21:02:01.917Z,84.24
2023-03-02T21:04:33.244Z,84.34
2023-03-02T21:07:03.139Z,84.37
2023-03-02T21:09:36.506Z,84.18
2023-03-02T21:12:09.214Z,84.23
2023-03-02T21:14:39.430Z,84.27
2023-03-02T21:17:12.844Z,84.56
2023-03-02T21:19:42.736Z,84.85
2023-03-02T21:22:12.932Z,85.31
2023-03-02T21:24:45.636Z,85.23
2023-03-02T21:27:15.831Z,85.22
2023-03-02T21:29:45.811Z,84.80
2023-03-02T21:32:16.347Z,84.80
2023-03-02T21:34:46.302Z,85.05
2023-03-02T21:37:17.722Z,85.36
2023-03-02T21:39:50.177Z,84.99
2023-03-02T21:42:21.299Z,84.86
2023-03-02T21:44:51.907Z,84.83
2023-03-02T21:47:21.796Z,84.88
2023-03-02T21:49:51.914Z,85.19
2023-03-02T21:52:21.797Z,85.13
2023-03-02T21:54:54.351Z,85.01
2023-03-02T21:57:24.220Z,85.36
2023-03-02T21:59:54.788Z,85.51
2023-03-02T22:02:24.739Z,85.72
2023-03-02T22:04:54.617Z,85.83
2023-03-02T22:07:24.515Z,85.99
2023-03-02T22:09:57.440Z,86.31
2023-03-02T22:12:27.842Z,86.03
2023-03-02T22:14:59.369Z,85.96
2023-03-02T22:17:29.252Z,86.32
2023-03-02T22:19:59.631Z,86.53
2023-03-02T22:22:32.875Z,86.78
2023-03-02T22:25:05.320Z,86.62
2023-03-02T22:27:35.506Z,86.56
2023-03-02T22:30:18.079Z,86.74
2023-03-02T22:32:48.294Z,86.67
2023-03-02T22:35:24.305Z,86.76
2023-03-02T22:38:02.231Z,86.50
2023-03-02T22:40:37.208Z,86.67
2023-03-02T22:43:18.073Z,87.38
2023-03-02T22:45:47.929Z,86.84
2023-03-02T22:48:20.933Z,86.91
2023-03-02T22:50:53.539Z,87.00
2023-03-02T22:53:28.235Z,87.18
2023-03-02T22:56:03.067Z,87.49
2023-03-02T22:58:45.471Z,87.53
2023-03-02T23:01:24.606Z,87.50
2023-03-02T23:03:57.244Z,87.74
2023-03-02T23:06:31.210Z,87.56
2023-03-02T23:09:03.150Z,87.58
2023-03-02T23:11:40.961Z,87.71
2023-03-02T23:14:21.815Z,87.89
2023-03-02T23:16:56.376Z,88.41
2023-03-02T23:19:28.302Z,88.26
2023-03-02T23:21:58.866Z,88.15
2023-03-02T23:24:29.151Z,88.27
2023-03-02T23:27:06.477Z,88.19
2023-03-02T23:29:36.273Z,88.04
2023-03-02T23:32:07.421Z,87.94
2023-03-02T23:34:37.290Z,88.16
2023-03-02T23:37:07.697Z,88.57
2023-03-02T23:39:37.811Z,88.56
2023-03-02T23:42:10.692Z,88.66
2023-03-02T23:44:40.679Z,88.95
2023-03-02T23:47:10.514Z,88.57
2023-03-02T23:49:40.631Z,88.79
2023-03-02T23:52:10.930Z,89.01
2023-03-02T23:54:42.123Z,88.77
2023-03-02T23:57:14.509Z,88.94
2023-03-02T23:59:45.022Z,88.99
